sensor_id;sensor_type;location;lat;lon;timestamp;pressure;altitude;pressure_sealevel;temperature;humidity
22662;BME280;11497;52.222;21.246;2023-05-23T00:00:12;100395.16;;;9.81;98.54
22662;BME280;11497;52.222;21.246;2023-05-23T00:03:02;100394.00;;;9.61;98.45
22662;BME280;11497;52.222;21.246;2023-05-23T00:05:31;100391.41;;;9.60;99.00
22662;BME280;11497;52.222;21.246;2023-05-23T00:08:00;100391.56;;;9.55;99.15
22662;BME280;11497;52.222;21.246;2023-05-23T00:10:28;100390.94;;;9.47;99.51
22662;BME280;11497;52.222;21.246;2023-05-23T00:12:56;100389.22;;;9.46;99.88
22662;BME280;11497;52.222;21.246;2023-05-23T00:15:24;100398.13;;;9.39;100.00
22662;BME280;11497;52.222;21.246;2023-05-23T00:17:52;100387.69;;;9.39;100.00
22662;BME280;11497;52.222;21.246;2023-05-23T00:20:21;100384.19;;;9.40;100.00
22662;BME280;11497;52.222;21.246;2023-05-23T00:22:49;100393.63;;;9.44;100.00
22662;BME280;11497;52.222;21.246;2023-05-23T00:25:17;100385.06;;;9.39;100.00
22662;BME280;11497;52.222;21.246;2023-05-23T00:27:48;100381.22;;;9.52;100.00
22662;BME280;11497;52.222;21.246;2023-05-23T00:30:16;100380.41;;;9.50;99.89
22662;BME280;11497;52.222;21.246;2023-05-23T00:32:44;100381.69;;;9.36;100.00
22662;BME280;11497;52.222;21.246;2023-05-23T00:35:12;100378.91;;;9.42;100.00
22662;BME280;11497;52.222;21.246;2023-05-23T00:37:40;100375.81;;;9.57;100.00
22662;BME280;11497;52.222;21.246;2023-05-23T00:40:08;100379.56;;;9.78;99.79
22662;BME280;11497;52.222;21.246;2023-05-23T00:42:36;100380.09;;;9.59;98.89
22662;BME280;11497;52.222;21.246;2023-05-23T00:45:05;100377.06;;;9.45;99.26
22662;BME280;11497;52.222;21.246;2023-05-23T00:47:33;100337.97;;;9.11;99.64
22662;BME280;11497;52.222;21.246;2023-05-23T00:50:03;100380.41;;;9.19;100.00
22662;BME280;11497;52.222;21.246;2023-05-23T00:52:31;100379.28;;;9.28;100.00
22662;BME280;11497;52.222;21.246;2023-05-23T00:54:59;100379.47;;;9.22;100.00
22662;BME280;11497;52.222;21.246;2023-05-23T00:57:27;100371.47;;;9.28;100.00
22662;BME280;11497;52.222;21.246;2023-05-23T00:59:56;100379.09;;;9.05;100.00
22662;BME280;11497;52.222;21.246;2023-05-23T01:02:24;100377.53;;;8.97;100.00
22662;BME280;11497;52.222;21.246;2023-05-23T01:04:54;100382.81;;;8.96;100.00
22662;BME280;11497;52.222;21.246;2023-05-23T01:07:22;100376.81;;;8.92;100.00
22662;BME280;11497;52.222;21.246;2023-05-23T01:09:50;100374.44;;;8.83;100.00
22662;BME280;11497;52.222;21.246;2023-05-23T01:12:36;100374.28;;;8.89;100.00
22662;BME280;11497;52.222;21.246;2023-05-23T01:15:12;100384.06;;;8.81;100.00
22662;BME280;11497;52.222;21.246;2023-05-23T01:20:51;100387.72;;;8.74;100.00
22662;BME280;11497;52.222;21.246;2023-05-23T01:29:20;100382.75;;;8.65;100.00
22662;BME280;11497;52.222;21.246;2023-05-23T01:31:52;100376.69;;;8.64;100.00
22662;BME280;11497;52.222;21.246;2023-05-23T01:34:21;100382.91;;;8.59;100.00
22662;BME280;11497;52.222;21.246;2023-05-23T01:36:53;100370.84;;;8.55;100.00
22662;BME280;11497;52.222;21.246;2023-05-23T01:39:22;100377.84;;;8.53;100.00
22662;BME280;11497;52.222;21.246;2023-05-23T01:41:52;100374.56;;;8.45;100.00
22662;BME280;11497;52.222;21.246;2023-05-23T01:44:20;100365.91;;;8.43;100.00
22662;BME280;11497;52.222;21.246;2023-05-23T01:46:49;100373.78;;;8.41;100.00
22662;BME280;11497;52.222;21.246;2023-05-23T01:49:17;100375.38;;;8.47;100.00
22662;BME280;11497;52.222;21.246;2023-05-23T01:51:47;100372.84;;;8.44;100.00
22662;BME280;11497;52.222;21.246;2023-05-23T01:54:15;100366.88;;;8.39;100.00
22662;BME280;11497;52.222;21.246;2023-05-23T01:56:47;100364.34;;;8.36;100.00
22662;BME280;11497;52.222;21.246;2023-05-23T01:59:16;100368.63;;;8.38;100.00
22662;BME280;11497;52.222;21.246;2023-05-23T02:01:44;100367.88;;;8.33;100.00
22662;BME280;11497;52.222;21.246;2023-05-23T02:04:13;100370.56;;;8.28;100.00
22662;BME280;11497;52.222;21.246;2023-05-23T02:06:41;100375.03;;;8.23;100.00
22662;BME280;11497;52.222;21.246;2023-05-23T02:09:12;100359.41;;;8.23;100.00
22662;BME280;11497;52.222;21.246;2023-05-23T02:11:40;100365.56;;;8.21;100.00
22662;BME280;11497;52.222;21.246;2023-05-23T02:14:09;100362.75;;;8.28;100.00
22662;BME280;11497;52.222;21.246;2023-05-23T02:16:38;100353.25;;;8.26;100.00
22662;BME280;11497;52.222;21.246;2023-05-23T02:19:05;100350.50;;;8.32;100.00
22662;BME280;11497;52.222;21.246;2023-05-23T02:21:33;100340.00;;;8.37;100.00
22662;BME280;11497;52.222;21.246;2023-05-23T02:24:03;100351.97;;;8.44;100.00
22662;BME280;11497;52.222;21.246;2023-05-23T02:26:31;100346.84;;;8.41;100.00
22662;BME280;11497;52.222;21.246;2023-05-23T02:28:59;100338.31;;;8.34;100.00
22662;BME280;11497;52.222;21.246;2023-05-23T02:31:27;100341.03;;;8.28;100.00
22662;BME280;11497;52.222;21.246;2023-05-23T02:33:55;100341.25;;;8.56;100.00
22662;BME280;11497;52.222;21.246;2023-05-23T02:36:23;100337.97;;;8.48;100.00
22662;BME280;11497;52.222;21.246;2023-05-23T02:38:51;100333.84;;;8.39;100.00
22662;BME280;11497;52.222;21.246;2023-05-23T02:41:19;100338.94;;;8.44;100.00
22662;BME280;11497;52.222;21.246;2023-05-23T02:43:48;100341.78;;;8.34;100.00
22662;BME280;11497;52.222;21.246;2023-05-23T02:46:16;100332.25;;;8.33;100.00
22662;BME280;11497;52.222;21.246;2023-05-23T02:48:44;100321.81;;;8.33;100.00
22662;BME280;11497;52.222;21.246;2023-05-23T02:51:12;100325.16;;;8.39;100.00
22662;BME280;11497;52.222;21.246;2023-05-23T02:53:40;100328.47;;;8.45;100.00
22662;BME280;11497;52.222;21.246;2023-05-23T02:56:08;100332.75;;;8.48;100.00
22662;BME280;11497;52.222;21.246;2023-05-23T02:58:36;100334.41;;;8.52;100.00
22662;BME280;11497;52.222;21.246;2023-05-23T03:01:04;100334.31;;;8.55;100.00
22662;BME280;11497;52.222;21.246;2023-05-23T03:03:34;100327.19;;;8.61;100.00
22662;BME280;11497;52.222;21.246;2023-05-23T03:06:03;100330.63;;;8.63;100.00
22662;BME280;11497;52.222;21.246;2023-05-23T03:08:33;100324.97;;;8.79;100.00
22662;BME280;11497;52.222;21.246;2023-05-23T03:11:02;100324.06;;;9.11;100.00
22662;BME280;11497;52.222;21.246;2023-05-23T03:13:29;100324.84;;;9.14;100.00
22662;BME280;11497;52.222;21.246;2023-05-23T03:15:58;100325.09;;;9.36;100.00
22662;BME280;11497;52.222;21.246;2023-05-23T03:18:26;100323.56;;;9.29;100.00
22662;BME280;11497;52.222;21.246;2023-05-23T03:20:55;100321.66;;;9.34;100.00
22662;BME280;11497;52.222;21.246;2023-05-23T03:23:23;100325.94;;;9.37;100.00
22662;BME280;11497;52.222;21.246;2023-05-23T03:25:51;100319.50;;;9.48;100.00
22662;BME280;11497;52.222;21.246;2023-05-23T03:28:20;100325.59;;;10.03;99.46
22662;BME280;11497;52.222;21.246;2023-05-23T03:30:48;100324.81;;;10.54;98.28
22662;BME280;11497;52.222;21.246;2023-05-23T03:33:16;100324.13;;;10.98;96.31
22662;BME280;11497;52.222;21.246;2023-05-23T03:35:44;100326.34;;;12.01;93.55
22662;BME280;11497;52.222;21.246;2023-05-23T03:38:12;100325.63;;;12.80;89.89
22662;BME280;11497;52.222;21.246;2023-05-23T03:40:40;100323.97;;;13.37;86.07
22662;BME280;11497;52.222;21.246;2023-05-23T03:43:08;100332.53;;;13.02;83.30
22662;BME280;11497;52.222;21.246;2023-05-23T03:45:39;100331.94;;;12.56;82.29
22662;BME280;11497;52.222;21.246;2023-05-23T03:48:12;100332.88;;;12.33;82.03
22662;BME280;11497;52.222;21.246;2023-05-23T03:50:42;100332.53;;;12.20;82.62
22662;BME280;11497;52.222;21.246;2023-05-23T03:53:11;100330.94;;;12.16;82.91
22662;BME280;11497;52.222;21.246;2023-05-23T03:55:39;100331.34;;;12.07;82.90
22662;BME280;11497;52.222;21.246;2023-05-23T03:58:07;100325.91;;;12.12;82.68
22662;BME280;11497;52.222;21.246;2023-05-23T04:00:35;100317.94;;;12.13;82.31
22662;BME280;11497;52.222;21.246;2023-05-23T04:03:06;100318.50;;;12.21;82.29
22662;BME280;11497;52.222;21.246;2023-05-23T04:05:36;100323.63;;;12.24;82.52
22662;BME280;11497;52.222;21.246;2023-05-23T04:08:04;100316.81;;;12.41;82.39
22662;BME280;11497;52.222;21.246;2023-05-23T04:10:32;100321.16;;;12.82;81.63
22662;BME280;11497;52.222;21.246;2023-05-23T04:13:00;100316.22;;;12.95;80.03
22662;BME280;11497;52.222;21.246;2023-05-23T04:15:28;100301.22;;;13.17;78.61
22662;BME280;11497;52.222;21.246;2023-05-23T04:18:04;100314.47;;;14.25;74.13
22662;BME280;11497;52.222;21.246;2023-05-23T04:20:34;100313.03;;;14.01;72.71
22662;BME280;11497;52.222;21.246;2023-05-23T04:23:02;100317.69;;;14.30;72.06
22662;BME280;11497;52.222;21.246;2023-05-23T04:25:32;100312.31;;;15.34;70.03
22662;BME280;11497;52.222;21.246;2023-05-23T04:28:09;100311.13;;;17.07;63.86
22662;BME280;11497;52.222;21.246;2023-05-23T04:30:37;100312.03;;;16.47;62.14
22662;BME280;11497;52.222;21.246;2023-05-23T04:33:06;100309.22;;;16.36;61.17
22662;BME280;11497;52.222;21.246;2023-05-23T04:35:34;100310.19;;;16.19;61.13
22662;BME280;11497;52.222;21.246;2023-05-23T04:38:06;100303.50;;;15.98;61.49
22662;BME280;11497;52.222;21.246;2023-05-23T04:40:34;100307.09;;;15.97;61.54
22662;BME280;11497;52.222;21.246;2023-05-23T04:43:38;100311.94;;;15.89;61.11
22662;BME280;11497;52.222;21.246;2023-05-23T04:46:17;100310.06;;;15.91;60.58
22662;BME280;11497;52.222;21.246;2023-05-23T04:48:54;100313.50;;;16.07;60.39
22662;BME280;11497;52.222;21.246;2023-05-23T04:51:23;100312.13;;;16.16;61.02
22662;BME280;11497;52.222;21.246;2023-05-23T04:53:55;100308.34;;;16.36;61.23
22662;BME280;11497;52.222;21.246;2023-05-23T04:56:24;100310.06;;;16.51;59.61
22662;BME280;11497;52.222;21.246;2023-05-23T04:58:55;100309.34;;;16.63;58.47
22662;BME280;11497;52.222;21.246;2023-05-23T05:01:24;100311.50;;;16.72;58.07
22662;BME280;11497;52.222;21.246;2023-05-23T05:03:53;100307.94;;;16.87;57.72
22662;BME280;11497;52.222;21.246;2023-05-23T05:06:22;100310.00;;;16.82;57.17
22662;BME280;11497;52.222;21.246;2023-05-23T05:08:51;100304.03;;;16.93;57.02
22662;BME280;11497;52.222;21.246;2023-05-23T05:11:21;100307.44;;;16.95;56.24
22662;BME280;11497;52.222;21.246;2023-05-23T05:13:48;100301.88;;;17.14;55.84
22662;BME280;11497;52.222;21.246;2023-05-23T05:16:16;100298.03;;;17.60;55.06
22662;BME280;11497;52.222;21.246;2023-05-23T05:18:44;100293.59;;;18.02;53.21
22662;BME280;11497;52.222;21.246;2023-05-23T05:21:13;100297.50;;;17.70;53.48
22662;BME280;11497;52.222;21.246;2023-05-23T05:23:41;100293.34;;;17.51;53.86
22662;BME280;11497;52.222;21.246;2023-05-23T05:26:10;100294.28;;;17.50;54.58
22662;BME280;11497;52.222;21.246;2023-05-23T05:28:38;100294.09;;;17.53;54.59
22662;BME280;11497;52.222;21.246;2023-05-23T05:31:06;100292.78;;;17.46;54.15
22662;BME280;11497;52.222;21.246;2023-05-23T05:33:35;100302.13;;;17.52;54.17
22662;BME280;11497;52.222;21.246;2023-05-23T05:36:15;100291.63;;;17.65;53.54
22662;BME280;11497;52.222;21.246;2023-05-23T05:38:44;100298.47;;;17.81;52.94
22662;BME280;11497;52.222;21.246;2023-05-23T05:41:13;100295.53;;;17.86;53.31
22662;BME280;11497;52.222;21.246;2023-05-23T05:43:48;100294.94;;;17.95;53.18
22662;BME280;11497;52.222;21.246;2023-05-23T05:46:16;100300.28;;;18.08;53.15
22662;BME280;11497;52.222;21.246;2023-05-23T05:48:45;100298.84;;;18.16;52.84
22662;BME280;11497;52.222;21.246;2023-05-23T05:51:15;100299.31;;;18.36;52.40
22662;BME280;11497;52.222;21.246;2023-05-23T05:53:44;100297.81;;;19.58;51.21
22662;BME280;11497;52.222;21.246;2023-05-23T05:56:13;100305.44;;;19.76;49.50
22662;BME280;11497;52.222;21.246;2023-05-23T05:58:41;100299.88;;;20.26;48.51
22662;BME280;11497;52.222;21.246;2023-05-23T06:01:12;100297.50;;;20.70;46.76
22662;BME280;11497;52.222;21.246;2023-05-23T06:03:42;100303.66;;;20.70;46.52
22662;BME280;11497;52.222;21.246;2023-05-23T06:06:10;100294.50;;;20.74;46.36
22662;BME280;11497;52.222;21.246;2023-05-23T06:08:40;100293.13;;;21.80;45.00
22662;BME280;11497;52.222;21.246;2023-05-23T06:11:11;100283.84;;;21.64;44.03
22662;BME280;11497;52.222;21.246;2023-05-23T06:13:39;100289.63;;;21.80;43.62
22662;BME280;11497;52.222;21.246;2023-05-23T06:16:07;100284.66;;;22.18;43.24
22662;BME280;11497;52.222;21.246;2023-05-23T06:18:35;100285.41;;;22.41;42.74
22662;BME280;11497;52.222;21.246;2023-05-23T06:21:03;100286.44;;;21.97;42.79
22662;BME280;11497;52.222;21.246;2023-05-23T06:23:32;100282.34;;;21.82;42.02
22662;BME280;11497;52.222;21.246;2023-05-23T06:26:01;100271.75;;;21.60;41.66
22662;BME280;11497;52.222;21.246;2023-05-23T06:28:29;100278.06;;;21.47;41.66
22662;BME280;11497;52.222;21.246;2023-05-23T06:30:57;100280.25;;;21.42;41.32
22662;BME280;11497;52.222;21.246;2023-05-23T06:33:25;100277.59;;;21.31;40.86
22662;BME280;11497;52.222;21.246;2023-05-23T06:35:53;100278.31;;;21.44;41.23
22662;BME280;11497;52.222;21.246;2023-05-23T06:38:21;100274.69;;;21.45;40.50
22662;BME280;11497;52.222;21.246;2023-05-23T06:40:49;100272.75;;;21.47;40.57
22662;BME280;11497;52.222;21.246;2023-05-23T06:43:18;100276.13;;;21.49;41.41
22662;BME280;11497;52.222;21.246;2023-05-23T06:45:53;100275.78;;;21.86;40.51
22662;BME280;11497;52.222;21.246;2023-05-23T06:48:21;100276.72;;;22.07;39.09
22662;BME280;11497;52.222;21.246;2023-05-23T06:50:51;100270.59;;;22.16;38.24
22662;BME280;11497;52.222;21.246;2023-05-23T06:53:20;100272.53;;;22.46;37.92
22662;BME280;11497;52.222;21.246;2023-05-23T06:55:50;100274.66;;;23.25;36.53
22662;BME280;11497;52.222;21.246;2023-05-23T06:58:21;100261.31;;;23.84;35.27
22662;BME280;11497;52.222;21.246;2023-05-23T07:00:55;100262.88;;;24.35;34.87
22662;BME280;11497;52.222;21.246;2023-05-23T07:03:30;100256.84;;;24.23;33.71
22662;BME280;11497;52.222;21.246;2023-05-23T07:06:03;100253.72;;;24.47;33.92
22662;BME280;11497;52.222;21.246;2023-05-23T07:08:31;100249.94;;;25.33;32.98
22662;BME280;11497;52.222;21.246;2023-05-23T07:11:01;100235.41;;;26.60;31.53
22662;BME280;11497;52.222;21.246;2023-05-23T07:13:36;100244.34;;;27.87;29.75
22662;BME280;11497;52.222;21.246;2023-05-23T07:16:05;100252.06;;;29.74;28.33
22662;BME280;11497;52.222;21.246;2023-05-23T07:18:35;100251.94;;;31.83;25.56
22662;BME280;11497;52.222;21.246;2023-05-23T07:21:06;100243.16;;;33.35;23.26
22662;BME280;11497;52.222;21.246;2023-05-23T07:23:34;100240.44;;;34.62;21.99
22662;BME280;11497;52.222;21.246;2023-05-23T07:26:02;100251.09;;;36.18;20.16
22662;BME280;11497;52.222;21.246;2023-05-23T07:28:40;100240.47;;;36.59;19.35
22662;BME280;11497;52.222;21.246;2023-05-23T07:31:08;100240.47;;;36.59;19.35
22662;BME280;11497;52.222;21.246;2023-05-23T07:33:37;100234.75;;;38.77;16.87
22662;BME280;11497;52.222;21.246;2023-05-23T07:36:09;100233.88;;;39.00;16.04
22662;BME280;11497;52.222;21.246;2023-05-23T07:38:36;100232.16;;;39.63;15.69
22662;BME280;11497;52.222;21.246;2023-05-23T07:41:04;100233.47;;;39.32;15.52
22662;BME280;11497;52.222;21.246;2023-05-23T07:43:40;100229.41;;;38.71;15.64
22662;BME280;11497;52.222;21.246;2023-05-23T07:46:08;100227.72;;;38.70;15.76
22662;BME280;11497;52.222;21.246;2023-05-23T07:48:37;100226.28;;;39.02;15.27
22662;BME280;11497;52.222;21.246;2023-05-23T07:51:05;100226.69;;;40.08;15.16
22662;BME280;11497;52.222;21.246;2023-05-23T07:53:34;100226.59;;;40.03;14.79
22662;BME280;11497;52.222;21.246;2023-05-23T07:56:10;100230.94;;;40.15;14.50
22662;BME280;11497;52.222;21.246;2023-05-23T07:58:40;100215.94;;;38.81;14.48
22662;BME280;11497;52.222;21.246;2023-05-23T08:01:08;100217.66;;;39.62;14.50
22662;BME280;11497;52.222;21.246;2023-05-23T08:03:56;100209.81;;;40.66;14.08
22662;BME280;11497;52.222;21.246;2023-05-23T08:06:32;100204.34;;;40.49;13.30
22662;BME280;11497;52.222;21.246;2023-05-23T08:09:04;100210.50;;;40.40;13.31
22662;BME280;11497;52.222;21.246;2023-05-23T08:11:37;100209.59;;;40.73;14.24
22662;BME280;11497;52.222;21.246;2023-05-23T08:14:06;100198.84;;;40.88;13.42
22662;BME280;11497;52.222;21.246;2023-05-23T08:16:37;100198.34;;;41.35;13.07
22662;BME280;11497;52.222;21.246;2023-05-23T08:19:11;100195.47;;;41.25;12.92
22662;BME280;11497;52.222;21.246;2023-05-23T08:21:39;100201.09;;;41.35;12.96
22662;BME280;11497;52.222;21.246;2023-05-23T08:24:08;100185.84;;;40.78;12.39
22662;BME280;11497;52.222;21.246;2023-05-23T08:26:38;100198.06;;;39.87;13.05
22662;BME280;11497;52.222;21.246;2023-05-23T08:29:09;100188.72;;;40.33;12.46
22662;BME280;11497;52.222;21.246;2023-05-23T08:31:38;100200.28;;;40.35;12.63
22662;BME280;11497;52.222;21.246;2023-05-23T08:34:07;100197.44;;;40.30;12.64
22662;BME280;11497;52.222;21.246;2023-05-23T08:36:37;100192.34;;;40.72;12.56
22662;BME280;11497;52.222;21.246;2023-05-23T08:39:09;100181.44;;;41.21;12.66
22662;BME280;11497;52.222;21.246;2023-05-23T08:41:50;100179.22;;;40.58;12.70
22662;BME280;11497;52.222;21.246;2023-05-23T08:44:18;100189.03;;;40.53;12.56
22662;BME280;11497;52.222;21.246;2023-05-23T08:46:52;100183.91;;;40.07;12.02
22662;BME280;11497;52.222;21.246;2023-05-23T08:49:40;100176.72;;;39.55;12.48
22662;BME280;11497;52.222;21.246;2023-05-23T08:52:11;100183.25;;;40.00;12.40
22662;BME280;11497;52.222;21.246;2023-05-23T08:54:44;100186.09;;;38.79;12.25
22662;BME280;11497;52.222;21.246;2023-05-23T08:57:14;100174.34;;;38.44;12.83
22662;BME280;11497;52.222;21.246;2023-05-23T08:59:49;100170.75;;;38.08;13.25
22662;BME280;11497;52.222;21.246;2023-05-23T09:02:20;100168.88;;;38.44;13.79
22662;BME280;11497;52.222;21.246;2023-05-23T09:04:52;100160.44;;;38.22;12.91
22662;BME280;11497;52.222;21.246;2023-05-23T09:07:25;100173.03;;;38.23;13.21
22662;BME280;11497;52.222;21.246;2023-05-23T09:09:55;100164.59;;;37.11;12.93
22662;BME280;11497;52.222;21.246;2023-05-23T09:12:23;100161.56;;;37.19;12.91
22662;BME280;11497;52.222;21.246;2023-05-23T09:14:51;100163.63;;;37.06;13.08
22662;BME280;11497;52.222;21.246;2023-05-23T09:17:22;100159.00;;;36.02;13.79
22662;BME280;11497;52.222;21.246;2023-05-23T09:19:51;100143.84;;;36.55;13.55
22662;BME280;11497;52.222;21.246;2023-05-23T09:22:28;100160.38;;;36.97;13.93
22662;BME280;11497;52.222;21.246;2023-05-23T09:25:01;100145.06;;;36.96;13.90
22662;BME280;11497;52.222;21.246;2023-05-23T09:27:29;100151.88;;;36.87;13.95
22662;BME280;11497;52.222;21.246;2023-05-23T09:29:58;100149.53;;;36.90;13.48
22662;BME280;11497;52.222;21.246;2023-05-23T09:32:32;100160.28;;;36.67;14.10
22662;BME280;11497;52.222;21.246;2023-05-23T09:35:05;100160.97;;;36.62;14.39
22662;BME280;11497;52.222;21.246;2023-05-23T09:37:38;100143.31;;;36.22;14.88
22662;BME280;11497;52.222;21.246;2023-05-23T09:40:09;100160.81;;;36.57;14.45
22662;BME280;11497;52.222;21.246;2023-05-23T09:42:47;100158.16;;;35.76;14.20
22662;BME280;11497;52.222;21.246;2023-05-23T09:45:15;100151.41;;;36.10;14.31
22662;BME280;11497;52.222;21.246;2023-05-23T09:47:50;100143.50;;;35.46;14.46
22662;BME280;11497;52.222;21.246;2023-05-23T09:50:20;100154.25;;;35.27;14.51
22662;BME280;11497;52.222;21.246;2023-05-23T09:52:49;100143.06;;;35.49;13.93
22662;BME280;11497;52.222;21.246;2023-05-23T09:55:18;100139.94;;;35.07;14.17
22662;BME280;11497;52.222;21.246;2023-05-23T09:57:51;100147.00;;;33.64;14.80
22662;BME280;11497;52.222;21.246;2023-05-23T10:00:20;100142.66;;;33.96;15.33
22662;BME280;11497;52.222;21.246;2023-05-23T10:03:09;100139.56;;;34.97;15.33
22662;BME280;11497;52.222;21.246;2023-05-23T10:05:47;100149.19;;;34.93;15.01
22662;BME280;11497;52.222;21.246;2023-05-23T10:08:26;100143.88;;;34.27;15.28
22662;BME280;11497;52.222;21.246;2023-05-23T10:13:28;100130.72;;;32.97;15.74
22662;BME280;11497;52.222;21.246;2023-05-23T10:21:59;100126.28;;;28.96;19.84
22662;BME280;11497;52.222;21.246;2023-05-23T10:24:28;100118.84;;;28.59;20.21
22662;BME280;11497;52.222;21.246;2023-05-23T10:26:57;100119.94;;;28.26;20.73
22662;BME280;11497;52.222;21.246;2023-05-23T10:29:26;100121.31;;;28.05;21.41
22662;BME280;11497;52.222;21.246;2023-05-23T10:31:55;100113.59;;;27.62;21.52
22662;BME280;11497;52.222;21.246;2023-05-23T10:34:37;100120.56;;;27.38;21.32
22662;BME280;11497;52.222;21.246;2023-05-23T10:37:09;100121.75;;;26.77;21.85
22662;BME280;11497;52.222;21.246;2023-05-23T10:39:41;100116.69;;;26.74;22.47
22662;BME280;11497;52.222;21.246;2023-05-23T10:44:48;100115.81;;;27.08;23.07
22662;BME280;11497;52.222;21.246;2023-05-23T10:47:28;100116.50;;;27.10;22.71
22662;BME280;11497;52.222;21.246;2023-05-23T10:49:56;100112.50;;;27.14;22.68
22662;BME280;11497;52.222;21.246;2023-05-23T10:52:24;100119.03;;;26.69;22.94
22662;BME280;11497;52.222;21.246;2023-05-23T10:54:54;100114.38;;;26.88;23.17
22662;BME280;11497;52.222;21.246;2023-05-23T10:57:25;100104.06;;;27.09;22.92
22662;BME280;11497;52.222;21.246;2023-05-23T10:59:54;100118.69;;;26.72;23.23
22662;BME280;11497;52.222;21.246;2023-05-23T11:02:27;100113.34;;;26.38;22.79
22662;BME280;11497;52.222;21.246;2023-05-23T11:05:22;100114.03;;;26.40;23.76
22662;BME280;11497;52.222;21.246;2023-05-23T11:08:07;100109.19;;;26.52;23.34
22662;BME280;11497;52.222;21.246;2023-05-23T11:10:55;100097.41;;;26.79;23.51
22662;BME280;11497;52.222;21.246;2023-05-23T11:13:52;100089.84;;;27.49;23.27
22662;BME280;11497;52.222;21.246;2023-05-23T11:16:28;100101.13;;;28.01;22.67
22662;BME280;11497;52.222;21.246;2023-05-23T11:22:00;100101.63;;;28.13;22.08
22662;BME280;11497;52.222;21.246;2023-05-23T11:24:50;100083.44;;;28.15;22.16
22662;BME280;11497;52.222;21.246;2023-05-23T11:27:33;100084.09;;;28.17;22.28
22662;BME280;11497;52.222;21.246;2023-05-23T11:30:14;100082.78;;;28.13;22.30
22662;BME280;11497;52.222;21.246;2023-05-23T11:32:50;100080.59;;;28.08;22.24
22662;BME280;11497;52.222;21.246;2023-05-23T11:35:19;100077.25;;;27.98;22.42
22662;BME280;11497;52.222;21.246;2023-05-23T11:37:48;100066.69;;;27.80;22.85
22662;BME280;11497;52.222;21.246;2023-05-23T11:40:29;100075.59;;;27.89;23.38
22662;BME280;11497;52.222;21.246;2023-05-23T11:43:03;100060.78;;;27.93;23.21
22662;BME280;11497;52.222;21.246;2023-05-23T11:45:32;100070.53;;;27.29;23.43
22662;BME280;11497;52.222;21.246;2023-05-23T11:48:14;100065.53;;;26.76;23.34
22662;BME280;11497;52.222;21.246;2023-05-23T11:50:51;100067.72;;;26.38;23.71
22662;BME280;11497;52.222;21.246;2023-05-23T11:53:21;100069.88;;;26.09;24.22
22662;BME280;11497;52.222;21.246;2023-05-23T11:55:57;100057.63;;;26.06;24.51
22662;BME280;11497;52.222;21.246;2023-05-23T11:58:35;100063.91;;;25.89;24.85
22662;BME280;11497;52.222;21.246;2023-05-23T12:01:08;100063.47;;;25.76;25.27
22662;BME280;11497;52.222;21.246;2023-05-23T12:03:47;100060.16;;;26.34;24.93
22662;BME280;11497;52.222;21.246;2023-05-23T12:06:19;100063.25;;;26.55;25.09
22662;BME280;11497;52.222;21.246;2023-05-23T12:08:47;100064.22;;;26.46;25.56
22662;BME280;11497;52.222;21.246;2023-05-23T12:11:15;100065.56;;;26.42;25.53
22662;BME280;11497;52.222;21.246;2023-05-23T12:13:45;100056.59;;;26.67;24.98
22662;BME280;11497;52.222;21.246;2023-05-23T12:16:13;100059.91;;;26.53;25.05
22662;BME280;11497;52.222;21.246;2023-05-23T12:18:44;100059.59;;;26.64;25.27
22662;BME280;11497;52.222;21.246;2023-05-23T12:21:12;100056.66;;;26.83;25.26
22662;BME280;11497;52.222;21.246;2023-05-23T12:23:41;100050.06;;;26.70;24.87
22662;BME280;11497;52.222;21.246;2023-05-23T12:26:09;100057.34;;;26.94;24.96
22662;BME280;11497;52.222;21.246;2023-05-23T12:28:41;100050.34;;;27.09;24.32
22662;BME280;11497;52.222;21.246;2023-05-23T12:31:19;100043.56;;;26.89;24.38
22662;BME280;11497;52.222;21.246;2023-05-23T12:33:51;100049.59;;;26.82;24.64
22662;BME280;11497;52.222;21.246;2023-05-23T12:36:26;100050.84;;;26.54;24.32
22662;BME280;11497;52.222;21.246;2023-05-23T12:39:03;100042.50;;;26.65;25.08
22662;BME280;11497;52.222;21.246;2023-05-23T12:41:33;100043.66;;;26.63;24.82
22662;BME280;11497;52.222;21.246;2023-05-23T12:44:01;100038.47;;;26.61;25.21
22662;BME280;11497;52.222;21.246;2023-05-23T12:46:30;100040.81;;;26.64;25.38
22662;BME280;11497;52.222;21.246;2023-05-23T12:48:58;100038.75;;;26.50;25.69
22662;BME280;11497;52.222;21.246;2023-05-23T12:51:26;100034.00;;;26.36;25.22
22662;BME280;11497;52.222;21.246;2023-05-23T12:53:54;100033.53;;;26.14;25.80
22662;BME280;11497;52.222;21.246;2023-05-23T12:56:23;100027.84;;;26.17;26.18
22662;BME280;11497;52.222;21.246;2023-05-23T12:58:51;100024.81;;;26.12;25.60
22662;BME280;11497;52.222;21.246;2023-05-23T13:01:20;100023.38;;;25.92;26.54
22662;BME280;11497;52.222;21.246;2023-05-23T13:03:49;100022.63;;;25.82;26.29
22662;BME280;11497;52.222;21.246;2023-05-23T13:06:17;100018.38;;;25.97;26.13
22662;BME280;11497;52.222;21.246;2023-05-23T13:08:45;100023.59;;;26.07;25.90
22662;BME280;11497;52.222;21.246;2023-05-23T13:11:13;100018.22;;;25.99;26.01
22662;BME280;11497;52.222;21.246;2023-05-23T13:13:41;100019.78;;;25.83;26.64
22662;BME280;11497;52.222;21.246;2023-05-23T13:16:09;100021.25;;;25.78;26.03
22662;BME280;11497;52.222;21.246;2023-05-23T13:18:37;100007.69;;;25.79;26.57
22662;BME280;11497;52.222;21.246;2023-05-23T13:21:05;100002.69;;;25.84;26.16